This is the latest recevied weather packets stored in our database for station/object HB9FRQ-10. If no packets are shown the sender has not sent any weather packets the latest 1 day(s).
| Time | Temp. | Humidity | Pressure | Rain* | Wind** | Luminosity | Snow |
|---|---|---|---|---|---|---|---|
| 1788596699 | 22.78° C | 71% | 1024.7 hPa | - | - | - | - |
| 1788595799 | 23.33° C | 69% | 1024.5 hPa | - | - | - | - |
| 1788594899 | 23.89° C | 66% | 1024.5 hPa | - | - | - | - |
| 1788593998 | 24.44° C | 68% | 1024.1 hPa | - | - | - | - |
| 1788593098 | 22.22° C | 78% | 1024.2 hPa | - | - | - | - |
| 1788592198 | 21.67° C | 83% | 1024.1 hPa | - | - | - | - |
| 1788591298 | 21.11° C | 85% | 1024 hPa | - | - | - | - |
| 1788590398 | 20.56° C | 89% | 1023.8 hPa | - | - | - | - |
| 1788589497 | 20° C | 87% | 1023.7 hPa | - | - | - | - |
| 1788588597 | 20° C | 84% | 1023.5 hPa | - | - | - | - |
| 1788587695 | 20° C | 83% | 1023.4 hPa | - | - | - | - |
| 1788586795 | 19.44° C | 83% | 1023.3 hPa | - | - | - | - |
| 1788585895 | 19.44° C | 85% | 1023.1 hPa | - | - | - | - |
| 1788584995 | 19.44° C | 81% | 1022.9 hPa | - | - | - | - |
| 1788584094 | 19.44° C | 81% | 1022.5 hPa | - | - | - | - |
| 1788583194 | 19.44° C | 82% | 1022.2 hPa | - | - | - | - |
| 1788582294 | 20° C | 77% | 1022.5 hPa | - | - | - | - |
| 1788581393 | 20° C | 72% | 1022.5 hPa | - | - | - | - |
| 1788580493 | 20° C | 73% | 1022.3 hPa | - | - | - | - |
| 1788579593 | 20.56° C | 72% | 1022.1 hPa | - | - | - | - |
| 1788578692 | 20.56° C | 72% | 1022 hPa | - | - | - | - |
| 1788577792 | 20.56° C | 72% | 1021.9 hPa | - | - | - | - |
| 1788576892 | 20.56° C | 72% | 1021.7 hPa | - | - | - | - |
| 1788575991 | 20.56° C | 73% | 1021.8 hPa | - | - | - | - |
| 1788575091 | 20.56° C | 69% | 1021.5 hPa | - | - | - | - |
* Rain since midnight (hover to see other rain measurements)
** Current wind speed in m/s (hover to see current wind gust speed)